createdAt,value
2023-06-04T00:01:25.413Z,0.80
2023-06-04T00:03:53.049Z,0.93
2023-06-04T00:06:21.066Z,0.98
2023-06-04T00:08:48.095Z,1.20
2023-06-04T00:11:15.256Z,0.93
2023-06-04T00:13:42.338Z,1.23
2023-06-04T00:16:09.506Z,1.13
2023-06-04T00:18:36.464Z,0.82
2023-06-04T00:21:03.428Z,0.90
2023-06-04T00:23:30.485Z,0.90
2023-06-04T00:25:57.504Z,1.10
2023-06-04T00:28:24.517Z,1.42
2023-06-04T00:30:51.668Z,1.02
2023-06-04T00:33:18.668Z,1.00
2023-06-04T00:35:45.618Z,1.00
2023-06-04T00:38:12.787Z,1.00
2023-06-04T00:40:39.812Z,0.90
2023-06-04T00:43:06.930Z,0.73
2023-06-04T00:45:35.600Z,1.00
2023-06-04T00:48:02.718Z,1.00
2023-06-04T00:50:31.655Z,0.80
2023-06-04T00:52:59.841Z,0.90
2023-06-04T00:55:26.924Z,1.00
2023-06-04T00:57:53.883Z,1.20
2023-06-04T01:00:21.355Z,1.17
2023-06-04T01:02:54.742Z,0.90
2023-06-04T01:05:38.092Z,1.08
2023-06-04T01:08:06.866Z,1.00
2023-06-04T01:10:34.019Z,0.80
2023-06-04T01:13:01.333Z,1.10
2023-06-04T01:15:28.357Z,1.20
2023-06-04T01:18:04.418Z,1.23
2023-06-04T01:20:50.145Z,1.20
2023-06-04T01:23:34.822Z,1.23
2023-06-04T01:26:05.925Z,1.17
2023-06-04T01:28:35.342Z,1.05
2023-06-04T01:31:04.123Z,1.33
2023-06-04T01:33:31.473Z,1.02
2023-06-04T01:35:59.300Z,1.05
2023-06-04T01:38:26.323Z,1.00
2023-06-04T01:40:57.346Z,1.33
2023-06-04T01:43:24.463Z,1.05
2023-06-04T01:45:51.412Z,0.93
2023-06-04T01:48:19.138Z,1.10
2023-06-04T01:50:46.196Z,1.08
2023-06-04T01:53:13.196Z,1.10
2023-06-04T01:55:40.262Z,1.13
2023-06-04T01:58:08.362Z,1.35
2023-06-04T02:00:35.481Z,1.10
2023-06-04T02:03:03.383Z,1.38
2023-06-04T02:05:30.820Z,1.17
2023-06-04T02:07:59.431Z,1.17
2023-06-04T02:10:26.542Z,1.10
2023-06-04T02:12:59.355Z,1.50
2023-06-04T02:15:29.133Z,1.55
2023-06-04T02:18:00.102Z,1.48
2023-06-04T02:20:28.282Z,1.20
2023-06-04T02:22:58.529Z,1.20
2023-06-04T02:25:27.140Z,1.33
2023-06-04T02:27:54.287Z,1.40
2023-06-04T02:30:21.304Z,1.30
2023-06-04T02:32:52.741Z,1.17
2023-06-04T02:35:22.339Z,1.67
2023-06-04T02:37:50.922Z,1.50
2023-06-04T02:40:18.238Z,1.50
2023-06-04T02:42:45.341Z,1.38
2023-06-04T02:45:12.819Z,1.42
2023-06-04T02:47:39.897Z,1.30
2023-06-04T02:50:07.449Z,1.10
2023-06-04T02:52:38.215Z,1.25
2023-06-04T02:55:07.995Z,1.38
2023-06-04T02:57:35.085Z,1.48
2023-06-04T03:00:02.568Z,1.40
2023-06-04T03:02:29.604Z,1.40
2023-06-04T03:04:56.663Z,1.50
2023-06-04T03:07:24.013Z,1.80
2023-06-04T03:09:51.491Z,1.30
2023-06-04T03:12:18.951Z,1.60
2023-06-04T03:14:45.937Z,1.75
2023-06-04T03:17:14.157Z,1.27
2023-06-04T03:19:43.608Z,1.52
2023-06-04T03:22:11.985Z,1.35
2023-06-04T03:24:41.044Z,1.73
2023-06-04T03:27:10.386Z,1.63
2023-06-04T03:29:41.359Z,1.60
2023-06-04T03:32:09.307Z,1.77
2023-06-04T03:34:37.997Z,1.50
2023-06-04T03:37:05.568Z,1.63
2023-06-04T03:39:33.871Z,1.88
2023-06-04T03:42:04.465Z,1.77
2023-06-04T03:44:31.832Z,1.90
2023-06-04T03:46:59.568Z,1.35
2023-06-04T03:49:27.793Z,1.80
2023-06-04T03:51:56.250Z,1.60
2023-06-04T03:54:26.000Z,1.67
2023-06-04T03:56:54.902Z,1.88
2023-06-04T03:59:22.260Z,2.20
2023-06-04T04:01:49.849Z,2.20
2023-06-04T04:04:17.071Z,1.83
2023-06-04T04:06:44.057Z,1.85
2023-06-04T04:09:13.021Z,1.60
2023-06-04T04:11:40.352Z,1.98
2023-06-04T04:14:08.073Z,1.90
2023-06-04T04:16:35.111Z,1.67
2023-06-04T04:19:03.032Z,1.73
2023-06-04T04:21:30.057Z,1.77
2023-06-04T04:23:57.368Z,1.92
2023-06-04T04:26:24.977Z,1.67
2023-06-04T04:28:59.201Z,1.73
2023-06-04T04:31:28.786Z,2.03
2023-06-04T04:33:57.375Z,1.90
2023-06-04T04:36:25.894Z,2.13
2023-06-04T04:38:56.126Z,1.85
2023-06-04T04:41:29.662Z,1.85
2023-06-04T04:44:05.342Z,2.10
2023-06-04T04:46:33.028Z,2.05
2023-06-04T04:49:00.437Z,2.08
2023-06-04T04:51:27.889Z,1.75
2023-06-04T04:53:57.651Z,2.30
2023-06-04T04:56:27.602Z,1.95
2023-06-04T04:58:57.131Z,2.03
2023-06-04T05:01:26.894Z,2.25
2023-06-04T05:03:54.668Z,2.70
2023-06-04T05:06:22.813Z,2.13
2023-06-04T05:08:50.593Z,2.13
2023-06-04T05:11:19.001Z,2.60
2023-06-04T05:13:47.937Z,1.88
2023-06-04T05:16:18.867Z,1.77
2023-06-04T05:18:46.283Z,2.13
2023-06-04T05:21:21.347Z,2.28
2023-06-04T05:23:54.562Z,2.20
2023-06-04T05:26:28.777Z,2.47
2023-06-04T05:28:59.730Z,2.13
2023-06-04T05:31:29.891Z,2.10
2023-06-04T05:33:59.015Z,2.25
2023-06-04T05:36:31.867Z,2.45
2023-06-04T05:39:02.746Z,2.00
2023-06-04T05:41:37.056Z,1.80
2023-06-04T05:44:05.381Z,2.40
2023-06-04T05:46:32.632Z,2.25
2023-06-04T05:49:02.970Z,2.30
2023-06-04T05:51:30.010Z,2.00
2023-06-04T05:53:58.524Z,2.40
2023-06-04T05:56:27.512Z,2.50
2023-06-04T05:58:56.617Z,2.47
2023-06-04T06:01:26.360Z,2.20
2023-06-04T06:03:54.474Z,2.35
2023-06-04T06:06:23.110Z,2.50
2023-06-04T06:08:50.880Z,2.40
2023-06-04T06:11:20.039Z,2.10
2023-06-04T06:13:47.148Z,2.65
2023-06-04T06:16:15.881Z,2.10
2023-06-04T06:18:43.163Z,2.30
2023-06-04T06:21:10.537Z,2.65
2023-06-04T06:23:41.627Z,2.35
2023-06-04T06:26:09.437Z,2.20
2023-06-04T06:28:45.245Z,2.20
2023-06-04T06:31:13.027Z,2.60
2023-06-04T06:33:42.490Z,2.58
2023-06-04T06:36:14.966Z,2.50
2023-06-04T06:38:42.042Z,2.30
2023-06-04T06:41:09.608Z,2.20
2023-06-04T06:43:37.139Z,1.85
2023-06-04T06:46:04.140Z,2.25
2023-06-04T06:48:31.211Z,2.78
2023-06-04T06:50:58.316Z,2.05
2023-06-04T06:53:26.530Z,2.10
2023-06-04T06:55:53.496Z,2.17
2023-06-04T06:58:20.527Z,2.22
2023-06-04T07:00:47.610Z,2.60
2023-06-04T07:03:14.660Z,2.35
2023-06-04T07:05:43.015Z,2.65
2023-06-04T07:08:10.032Z,2.28
2023-06-04T07:10:39.182Z,2.47
2023-06-04T07:13:06.517Z,2.67
2023-06-04T07:15:33.484Z,2.33
2023-06-04T07:18:00.699Z,2.85
2023-06-04T07:20:27.723Z,2.67
2023-06-04T07:22:54.860Z,2.70
2023-06-04T07:25:22.431Z,2.85
2023-06-04T07:27:51.824Z,2.50
2023-06-04T07:30:19.827Z,2.10
2023-06-04T07:32:50.257Z,2.40
2023-06-04T07:35:18.016Z,2.70
2023-06-04T07:37:49.975Z,2.13
2023-06-04T07:40:17.811Z,2.50
2023-06-04T07:42:46.763Z,2.03
2023-06-04T07:45:13.937Z,2.42
2023-06-04T07:47:41.217Z,2.17
2023-06-04T07:50:08.956Z,2.20
2023-06-04T07:52:36.254Z,2.42
2023-06-04T07:55:04.329Z,2.22
2023-06-04T07:57:33.163Z,2.00
2023-06-04T08:00:00.993Z,2.47
2023-06-04T08:02:28.840Z,2.47
2023-06-04T08:04:55.901Z,1.90
2023-06-04T08:07:23.066Z,2.70
2023-06-04T08:09:50.969Z,2.70
2023-06-04T08:12:17.989Z,2.63
2023-06-04T08:14:44.983Z,2.15
2023-06-04T08:17:11.932Z,1.85
2023-06-04T08:19:38.973Z,1.65
2023-06-04T08:22:07.054Z,2.42
2023-06-04T08:24:34.315Z,1.80
2023-06-04T08:27:08.601Z,1.75
2023-06-04T08:29:38.151Z,1.70
2023-06-04T08:32:05.650Z,1.90
2023-06-04T08:34:32.773Z,2.20
2023-06-04T08:36:59.868Z,2.22
2023-06-04T08:39:26.928Z,1.77
2023-06-04T08:41:57.976Z,1.48
2023-06-04T08:44:26.078Z,1.50
2023-06-04T08:46:56.356Z,1.90
2023-06-04T08:49:24.933Z,1.92
2023-06-04T08:51:54.015Z,1.40
2023-06-04T08:54:21.134Z,1.65
2023-06-04T08:56:50.076Z,1.65
2023-06-04T08:59:17.627Z,1.70
2023-06-04T09:01:46.300Z,1.40
2023-06-04T09:04:14.187Z,1.30
2023-06-04T09:06:43.889Z,2.03
2023-06-04T09:09:13.882Z,1.92
2023-06-04T09:11:46.625Z,1.40
2023-06-04T09:14:17.676Z,1.70
2023-06-04T09:16:56.665Z,1.55
2023-06-04T09:19:24.280Z,1.50
2023-06-04T09:21:52.685Z,1.38
2023-06-04T09:24:25.690Z,1.40
2023-06-04T09:26:53.192Z,1.75
2023-06-04T09:29:20.281Z,1.85
2023-06-04T09:32:01.090Z,1.40
2023-06-04T09:34:31.579Z,1.60
2023-06-04T09:37:00.353Z,1.38
2023-06-04T09:39:28.468Z,1.25
2023-06-04T09:42:00.893Z,1.40
2023-06-04T09:44:28.635Z,1.73
2023-06-04T09:46:59.638Z,1.52
2023-06-04T09:49:27.062Z,1.77
2023-06-04T09:51:54.145Z,1.90
2023-06-04T09:54:21.161Z,1.45
2023-06-04T09:56:49.078Z,1.63
2023-06-04T09:59:16.667Z,1.98
2023-06-04T10:01:44.643Z,1.40
2023-06-04T10:04:15.193Z,1.40
2023-06-04T10:06:42.740Z,1.25
2023-06-04T10:09:10.627Z,1.45
2023-06-04T10:11:44.961Z,1.90
2023-06-04T10:14:20.854Z,1.77
2023-06-04T10:16:49.107Z,1.33
2023-06-04T10:19:18.868Z,1.60
2023-06-04T10:21:46.494Z,1.60
2023-06-04T10:24:16.336Z,0.95
2023-06-04T10:26:44.130Z,1.60
2023-06-04T10:29:12.939Z,1.48
2023-06-04T10:31:40.104Z,1.30
2023-06-04T10:34:07.508Z,1.58
2023-06-04T10:36:44.882Z,1.45
2023-06-04T10:39:13.778Z,1.20
2023-06-04T10:41:41.295Z,1.30
2023-06-04T10:44:08.586Z,1.48
2023-06-04T10:46:41.703Z,1.63
2023-06-04T10:49:12.508Z,1.50
2023-06-04T10:51:39.668Z,1.48
2023-06-04T10:54:07.348Z,1.20
2023-06-04T10:56:36.889Z,3.53
2023-06-04T10:59:18.493Z,1.33
2023-06-04T11:01:46.693Z,1.80
2023-06-04T11:04:24.705Z,1.50
2023-06-04T11:07:09.863Z,1.33
2023-06-04T11:09:37.926Z,1.35
2023-06-04T11:12:08.339Z,1.48
2023-06-04T11:14:35.362Z,1.48
2023-06-04T11:17:16.129Z,1.30
2023-06-04T11:19:43.406Z,1.25
2023-06-04T11:22:13.674Z,1.33
2023-06-04T11:24:41.185Z,2.45
2023-06-04T11:27:12.764Z,1.92
2023-06-04T11:29:44.896Z,1.50
2023-06-04T11:32:25.794Z,2.17
2023-06-04T11:35:05.721Z,1.70
2023-06-04T11:37:34.627Z,1.10
2023-06-04T11:40:02.110Z,1.42
2023-06-04T11:42:30.606Z,1.77
2023-06-04T11:44:58.372Z,1.27
2023-06-04T11:47:27.178Z,1.35
2023-06-04T11:49:57.913Z,2.10
2023-06-04T11:52:25.346Z,1.55
2023-06-04T11:54:52.498Z,1.88
2023-06-04T11:57:19.910Z,1.40
2023-06-04T11:59:47.262Z,1.73
2023-06-04T12:02:14.324Z,1.63
2023-06-04T12:04:42.922Z,2.40
2023-06-04T12:07:10.765Z,1.52
2023-06-04T12:09:40.306Z,1.65
2023-06-04T12:12:08.744Z,1.20
2023-06-04T12:14:36.345Z,1.50
2023-06-04T12:17:10.310Z,1.52
2023-06-04T12:19:57.966Z,1.52
2023-06-04T12:22:25.187Z,1.30
2023-06-04T12:24:59.466Z,1.35
2023-06-04T12:27:27.853Z,1.40
2023-06-04T12:30:09.156Z,1.50
2023-06-04T12:32:37.186Z,1.60
2023-06-04T12:35:04.681Z,1.40
2023-06-04T12:37:31.616Z,1.42
2023-06-04T12:39:58.704Z,1.30
2023-06-04T12:42:26.823Z,1.25
2023-06-04T12:44:53.815Z,1.60
2023-06-04T12:47:22.410Z,1.20
2023-06-04T12:49:49.656Z,1.38
2023-06-04T12:52:18.260Z,1.42
2023-06-04T12:54:46.601Z,1.50
2023-06-04T12:57:13.645Z,1.55
2023-06-04T12:59:40.718Z,1.30
2023-06-04T13:02:07.900Z,1.90
2023-06-04T13:04:35.009Z,1.67
2023-06-04T13:07:02.022Z,1.55
2023-06-04T13:09:31.335Z,1.73
2023-06-04T13:11:58.329Z,1.50
2023-06-04T13:14:25.632Z,1.42
2023-06-04T13:16:53.051Z,1.40
2023-06-04T13:19:24.902Z,1.50
2023-06-04T13:21:53.505Z,1.25
2023-06-04T13:24:20.926Z,1.40
2023-06-04T13:26:48.007Z,1.55
2023-06-04T13:29:17.332Z,1.27
2023-06-04T13:31:44.386Z,1.40
2023-06-04T13:34:26.367Z,1.40
2023-06-04T13:36:56.663Z,1.40
2023-06-04T13:39:23.881Z,1.67
2023-06-04T13:41:54.126Z,1.55
2023-06-04T13:44:27.381Z,1.35
2023-06-04T13:46:55.184Z,1.30
2023-06-04T13:49:22.404Z,1.33
2023-06-04T13:51:49.389Z,1.58
2023-06-04T13:54:16.467Z,1.67
2023-06-04T13:56:45.438Z,1.48
2023-06-04T13:59:12.437Z,1.80
2023-06-04T14:01:39.813Z,1.45
2023-06-04T14:04:08.138Z,1.70
2023-06-04T14:06:37.295Z,1.52
2023-06-04T14:09:05.325Z,1.33
2023-06-04T14:11:33.790Z,1.70
2023-06-04T14:14:01.156Z,1.42
2023-06-04T14:16:28.250Z,1.77
2023-06-04T14:18:55.334Z,1.67
2023-06-04T14:21:23.272Z,1.50
2023-06-04T14:23:51.484Z,1.13
2023-06-04T14:26:19.246Z,1.40
2023-06-04T14:28:46.366Z,1.38
2023-06-04T14:31:13.468Z,1.60
2023-06-04T14:33:41.773Z,1.65
2023-06-04T14:36:08.785Z,1.50
2023-06-04T14:38:35.743Z,1.85
2023-06-04T14:41:02.784Z,1.58
2023-06-04T14:43:29.909Z,1.52
2023-06-04T14:45:57.107Z,1.55
2023-06-04T14:48:24.748Z,1.40
2023-06-04T14:50:54.537Z,1.70
2023-06-04T14:53:21.810Z,1.50
2023-06-04T14:55:49.452Z,1.67
2023-06-04T14:58:17.248Z,1.40
2023-06-04T15:00:44.333Z,1.38
2023-06-04T15:03:11.989Z,1.40
2023-06-04T15:05:39.284Z,1.50
2023-06-04T15:08:06.442Z,1.20
2023-06-04T15:10:35.183Z,2.20
2023-06-04T15:13:02.497Z,1.65
2023-06-04T15:15:29.520Z,1.45
2023-06-04T15:17:56.893Z,1.48
2023-06-04T15:20:28.022Z,1.27
2023-06-04T15:22:55.342Z,1.88
2023-06-04T15:25:24.136Z,1.58
2023-06-04T15:27:51.306Z,1.20
2023-06-04T15:30:18.874Z,1.20
2023-06-04T15:32:47.594Z,1.52
2023-06-04T15:35:14.767Z,1.40
2023-06-04T15:37:41.988Z,1.00
2023-06-04T15:40:10.533Z,1.95
2023-06-04T15:42:37.620Z,1.05
2023-06-04T15:45:05.165Z,1.30
2023-06-04T15:47:32.195Z,1.60
2023-06-04T15:49:59.185Z,1.90
2023-06-04T15:52:26.450Z,1.80
2023-06-04T15:54:53.385Z,2.10
2023-06-04T15:57:20.522Z,1.60
2023-06-04T15:59:47.602Z,1.55
2023-06-04T16:02:15.786Z,1.58
2023-06-04T16:04:43.078Z,1.70
2023-06-04T16:07:10.006Z,1.40
2023-06-04T16:09:37.068Z,1.50
2023-06-04T16:12:06.558Z,1.60
2023-06-04T16:14:33.568Z,2.05
2023-06-04T16:17:00.960Z,1.90
2023-06-04T16:19:28.156Z,1.60
2023-06-04T16:21:55.253Z,1.60
2023-06-04T16:24:22.538Z,1.70
2023-06-04T16:26:49.594Z,1.73
2023-06-04T16:29:18.002Z,1.67
2023-06-04T16:31:45.130Z,1.70
2023-06-04T16:34:12.131Z,1.80
2023-06-04T16:36:39.352Z,1.42
2023-06-04T16:39:06.407Z,1.58
2023-06-04T16:41:34.172Z,1.75
2023-06-04T16:44:01.300Z,1.70
2023-06-04T16:46:28.421Z,1.73
2023-06-04T16:48:55.914Z,1.45
2023-06-04T16:51:23.087Z,1.33
2023-06-04T16:53:50.210Z,1.23
2023-06-04T16:56:17.241Z,1.67
2023-06-04T16:58:45.680Z,1.40
2023-06-04T17:01:12.908Z,1.35
2023-06-04T17:03:40.175Z,1.25
2023-06-04T17:06:10.532Z,1.50
2023-06-04T17:08:37.887Z,1.50
2023-06-04T17:11:04.881Z,1.20
2023-06-04T17:13:32.284Z,1.52
2023-06-04T17:15:59.280Z,1.40
2023-06-04T17:18:26.377Z,1.20
2023-06-04T17:20:53.477Z,1.30
2023-06-04T17:23:25.382Z,1.13
2023-06-04T17:25:53.296Z,1.50
2023-06-04T17:28:20.627Z,1.50
2023-06-04T17:30:47.840Z,1.55
2023-06-04T17:33:15.085Z,1.20
2023-06-04T17:35:42.126Z,1.50
2023-06-04T17:38:09.227Z,1.48
2023-06-04T17:40:36.249Z,1.60
2023-06-04T17:43:03.349Z,1.23
2023-06-04T17:45:33.104Z,1.40
2023-06-04T17:48:00.468Z,1.20
2023-06-04T17:50:27.747Z,1.10
2023-06-04T17:52:54.808Z,1.40
2023-06-04T17:55:21.789Z,1.15
2023-06-04T17:57:48.937Z,1.08
2023-06-04T18:00:16.394Z,1.60
2023-06-04T18:02:43.446Z,1.08
2023-06-04T18:05:10.995Z,1.60
2023-06-04T18:07:38.259Z,1.10
2023-06-04T18:10:06.591Z,1.08
2023-06-04T18:12:36.710Z,1.15
2023-06-04T18:15:05.266Z,1.25
2023-06-04T18:17:32.872Z,1.17
2023-06-04T18:19:59.959Z,1.00
2023-06-04T18:22:27.023Z,1.20
2023-06-04T18:24:54.764Z,1.35
2023-06-04T18:27:22.681Z,1.20
2023-06-04T18:29:50.653Z,1.20
2023-06-04T18:32:18.814Z,1.33
2023-06-04T18:34:46.102Z,0.93
2023-06-04T18:37:13.302Z,1.20
2023-06-04T18:39:40.894Z,0.95
2023-06-04T18:42:17.715Z,1.10
2023-06-04T18:44:55.098Z,1.00
2023-06-04T18:47:25.958Z,1.00
2023-06-04T18:49:53.014Z,1.20
2023-06-04T18:52:20.110Z,1.10
2023-06-04T18:54:48.184Z,1.15
2023-06-04T18:57:15.871Z,1.25
2023-06-04T18:59:42.962Z,1.23
2023-06-04T19:02:10.344Z,0.88
2023-06-04T19:04:37.537Z,0.93
2023-06-04T19:07:04.922Z,1.10
2023-06-04T19:09:32.984Z,1.10
2023-06-04T19:12:00.167Z,0.90
2023-06-04T19:14:28.245Z,1.25
2023-06-04T19:16:55.259Z,1.05
2023-06-04T19:19:22.279Z,1.38
2023-06-04T19:21:53.022Z,1.20
2023-06-04T19:24:24.326Z,1.83
2023-06-04T19:26:53.229Z,1.45
2023-06-04T19:29:20.367Z,1.20
2023-06-04T19:31:48.591Z,0.88
2023-06-04T19:34:15.834Z,1.20
2023-06-04T19:36:42.832Z,1.20
2023-06-04T19:39:09.814Z,0.93
2023-06-04T19:41:38.186Z,1.02
2023-06-04T19:44:05.285Z,1.63
2023-06-04T19:46:33.123Z,1.35
2023-06-04T19:49:00.207Z,1.20
2023-06-04T19:51:30.395Z,1.30
2023-06-04T19:53:57.437Z,1.38
2023-06-04T19:56:24.574Z,1.42
2023-06-04T19:58:52.869Z,1.00
2023-06-04T20:01:20.049Z,1.48
2023-06-04T20:03:47.287Z,1.10
2023-06-04T20:06:14.617Z,1.17
2023-06-04T20:08:42.689Z,1.10
2023-06-04T20:11:10.598Z,1.23
2023-06-04T20:13:38.215Z,1.20
2023-06-04T20:16:05.521Z,1.40
2023-06-04T20:18:34.502Z,1.52
2023-06-04T20:21:01.571Z,1.20
2023-06-04T20:23:28.659Z,1.40
2023-06-04T20:25:57.511Z,1.42
2023-06-04T20:28:26.123Z,1.63
2023-06-04T20:30:53.176Z,1.50
2023-06-04T20:33:20.169Z,2.00
2023-06-04T20:35:47.173Z,1.40
2023-06-04T20:38:14.253Z,1.48
2023-06-04T20:40:41.610Z,2.67
2023-06-04T20:43:08.576Z,1.60
2023-06-04T20:45:35.492Z,1.30
2023-06-04T20:48:02.772Z,1.17
2023-06-04T20:50:29.759Z,1.30
2023-06-04T20:52:56.776Z,1.30
2023-06-04T20:55:23.736Z,1.40
2023-06-04T20:57:50.790Z,1.40
2023-06-04T21:00:18.409Z,1.77
2023-06-04T21:02:45.690Z,1.13
2023-06-04T21:05:12.825Z,1.77
2023-06-04T21:07:39.797Z,1.95
2023-06-04T21:10:07.064Z,1.60
2023-06-04T21:12:34.042Z,1.40
2023-06-04T21:15:01.135Z,1.50
2023-06-04T21:17:28.405Z,1.50
2023-06-04T21:19:55.628Z,1.70
2023-06-04T21:22:22.721Z,1.58
2023-06-04T21:24:54.001Z,1.48
2023-06-04T21:27:21.330Z,1.50
2023-06-04T21:29:48.709Z,1.50
2023-06-04T21:32:15.834Z,1.42
2023-06-04T21:34:42.750Z,1.85
2023-06-04T21:37:09.861Z,1.58
2023-06-04T21:39:38.584Z,1.77
2023-06-04T21:42:05.804Z,1.38
2023-06-04T21:44:33.433Z,1.83
2023-06-04T21:47:01.343Z,1.80
2023-06-04T21:49:28.309Z,1.52
2023-06-04T21:51:55.424Z,1.90
2023-06-04T21:54:23.720Z,2.05
2023-06-04T21:56:50.965Z,1.88
2023-06-04T21:59:19.993Z,1.73
2023-06-04T22:01:48.847Z,1.85
2023-06-04T22:04:16.246Z,1.90
2023-06-04T22:06:43.285Z,2.10
2023-06-04T22:09:13.362Z,1.77
2023-06-04T22:11:43.662Z,1.77
2023-06-04T22:14:13.248Z,2.20
2023-06-04T22:16:45.865Z,2.08
2023-06-04T22:19:13.143Z,2.05
2023-06-04T22:21:40.158Z,1.88
2023-06-04T22:24:10.300Z,2.60
2023-06-04T22:26:38.447Z,1.85
2023-06-04T22:29:06.715Z,2.40
2023-06-04T22:31:33.904Z,1.98
2023-06-04T22:34:01.004Z,2.25
2023-06-04T22:36:27.978Z,1.63
2023-06-04T22:38:55.283Z,2.35
2023-06-04T22:41:24.718Z,1.88
2023-06-04T22:43:53.807Z,1.40
2023-06-04T22:46:20.867Z,1.80
2023-06-04T22:48:49.055Z,2.22
2023-06-04T22:51:18.412Z,1.85
2023-06-04T22:53:45.733Z,1.90
2023-06-04T22:56:13.106Z,2.17
2023-06-04T22:58:40.517Z,2.00
2023-06-04T23:01:07.784Z,1.90
2023-06-04T23:03:37.030Z,1.52
2023-06-04T23:06:05.751Z,2.08
2023-06-04T23:08:33.037Z,1.98
2023-06-04T23:11:00.320Z,1.90
2023-06-04T23:13:28.558Z,1.88
2023-06-04T23:15:58.169Z,2.00
2023-06-04T23:18:25.645Z,1.95
2023-06-04T23:20:53.218Z,1.98
2023-06-04T23:23:20.152Z,1.85
2023-06-04T23:25:47.130Z,2.00
2023-06-04T23:28:14.176Z,1.65
2023-06-04T23:30:41.166Z,1.70
2023-06-04T23:33:08.261Z,2.13
2023-06-04T23:35:35.566Z,1.80
2023-06-04T23:38:02.708Z,1.75
2023-06-04T23:40:29.661Z,2.13
2023-06-04T23:42:56.667Z,2.00
2023-06-04T23:45:24.518Z,2.20
2023-06-04T23:47:51.684Z,1.92
2023-06-04T23:50:18.810Z,2.33
2023-06-04T23:52:47.125Z,2.00
2023-06-04T23:55:14.111Z,1.70
2023-06-04T23:57:41.211Z,1.88
